Terminal Aerodrome Forecast
Issued by NWS Louisville, KY

Home | Current Version | Previous Version | Text Only | Print | Product List | Glossary On
Versions: 1 2 3 4 5 6 7 8 9 10 11 12 13 14 15 16 17 18 19 20 21 22 23 24
000
FTUS43 KLMK 260100 AAA
TAFSDF
TAF AMD
KSDF 260114Z 2601/2706 17008KT P6SM BKN022
     FM260200 17007KT P6SM SCT025 BKN250
     FM261400 20012G20KT P6SM SCT035 BKN080
     FM261700 20018G25KT P6SM VCTS BKN035CB
     FM262300 20012KT P6SM SCT040 BKN250=

USA.gov is the U.S. government's official web portal to all federal, state and local government web resources and services.